createdAt,value
2019-04-28T00:02:07.029Z,21.90
2019-04-28T00:04:36.594Z,21.90
2019-04-28T00:07:06.210Z,22.00
2019-04-28T00:09:35.766Z,21.90
2019-04-28T00:12:05.539Z,21.90
2019-04-28T00:14:35.124Z,22.00
2019-04-28T00:17:05.073Z,21.90
2019-04-28T00:19:34.645Z,21.90
2019-04-28T00:22:08.734Z,21.90
2019-04-28T00:24:42.548Z,21.90
2019-04-28T00:27:12.535Z,21.90
2019-04-28T00:29:46.035Z,21.90
2019-04-28T00:32:13.476Z,21.90
2019-04-28T00:34:43.101Z,21.90
2019-04-28T00:37:26.235Z,21.90
2019-04-28T00:39:55.834Z,21.90
2019-04-28T00:42:25.421Z,21.90
2019-04-28T00:44:55.002Z,21.90
2019-04-28T00:47:25.079Z,21.90
2019-04-28T00:49:54.627Z,21.90
2019-04-28T00:52:24.252Z,21.90
2019-04-28T00:54:53.819Z,21.90
2019-04-28T00:57:23.407Z,21.90
2019-04-28T00:59:57.968Z,21.90
2019-04-28T01:02:25.742Z,21.90
2019-04-28T01:04:55.427Z,21.90
2019-04-28T01:07:24.995Z,21.90
2019-04-28T01:09:54.636Z,21.90
2019-04-28T01:12:24.207Z,21.90
2019-04-28T01:14:55.447Z,21.90
2019-04-28T01:17:26.552Z,21.90
2019-04-28T01:19:59.711Z,21.90
2019-04-28T01:22:30.059Z,21.90
2019-04-28T01:24:59.732Z,21.90
2019-04-28T01:27:31.760Z,21.90
2019-04-28T01:30:07.934Z,21.90
2019-04-28T01:32:44.850Z,21.90
2019-04-28T01:35:15.263Z,21.90
2019-04-28T01:37:44.815Z,21.90
2019-04-28T01:40:15.406Z,21.90
2019-04-28T01:42:44.985Z,21.90
2019-04-28T01:45:14.548Z,21.80
2019-04-28T01:47:44.144Z,21.90
2019-04-28T01:50:13.697Z,21.90
2019-04-28T01:52:43.260Z,21.80
2019-04-28T01:55:12.843Z,21.80
2019-04-28T01:57:43.414Z,21.90
2019-04-28T02:00:22.942Z,21.80
2019-04-28T02:02:46.995Z,21.80
2019-04-28T02:05:19.605Z,21.80
2019-04-28T02:07:50.526Z,21.90
2019-04-28T02:10:21.796Z,21.80
2019-04-28T02:12:51.543Z,21.80
2019-04-28T02:15:21.163Z,21.80
2019-04-28T02:17:51.686Z,21.80
2019-04-28T02:20:22.747Z,21.80
2019-04-28T02:23:01.187Z,21.80
2019-04-28T02:25:31.792Z,21.80
2019-04-28T02:28:02.190Z,21.80
2019-04-28T02:30:44.052Z,21.80
2019-04-28T02:33:03.050Z,21.80
2019-04-28T02:35:34.220Z,21.80
2019-04-28T02:38:03.813Z,21.80
2019-04-28T02:40:33.372Z,21.80
2019-04-28T02:43:02.953Z,21.80
2019-04-28T02:45:34.719Z,21.80
2019-04-28T02:48:05.864Z,21.80
2019-04-28T02:50:55.421Z,21.70
2019-04-28T02:53:26.552Z,21.80
2019-04-28T02:55:57.215Z,21.70
2019-04-28T02:58:26.818Z,21.80
2019-04-28T03:01:06.209Z,21.70
2019-04-28T03:03:27.575Z,21.80
2019-04-28T03:05:57.158Z,21.70
2019-04-28T03:08:26.730Z,21.70
2019-04-28T03:10:56.300Z,21.70
2019-04-28T03:13:25.887Z,21.80
2019-04-28T03:15:55.471Z,21.70
2019-04-28T03:18:25.043Z,21.80
2019-04-28T03:20:55.644Z,21.70
2019-04-28T03:23:25.213Z,21.70
2019-04-28T03:26:02.330Z,21.70
2019-04-28T03:28:36.423Z,21.70
2019-04-28T03:31:46.936Z,21.80
2019-04-28T03:33:49.280Z,21.70
2019-04-28T03:36:16.118Z,21.70
2019-04-28T03:38:45.768Z,21.70
2019-04-28T03:41:15.331Z,21.70
2019-04-28T03:43:44.918Z,21.70
2019-04-28T03:46:30.443Z,21.70
2019-04-28T03:49:00.724Z,21.70
2019-04-28T03:51:31.030Z,21.70
2019-04-28T03:54:02.923Z,21.70
2019-04-28T03:56:31.948Z,21.70
2019-04-28T03:59:01.567Z,21.70
2019-04-28T04:01:31.389Z,21.70
2019-04-28T04:04:03.438Z,21.70
2019-04-28T04:06:32.425Z,21.70
2019-04-28T04:09:01.990Z,21.70
2019-04-28T04:11:34.695Z,21.70
2019-04-28T04:14:11.262Z,21.70
2019-04-28T04:16:41.304Z,21.70
2019-04-28T04:19:12.543Z,21.60
2019-04-28T04:21:43.008Z,21.60
2019-04-28T04:24:12.663Z,21.60
2019-04-28T04:26:42.259Z,21.70
2019-04-28T04:29:11.839Z,21.70
2019-04-28T04:31:41.553Z,21.70
2019-04-28T04:34:12.298Z,21.70
2019-04-28T04:36:42.028Z,21.70
2019-04-28T04:39:11.646Z,21.70
2019-04-28T04:41:43.798Z,21.60
2019-04-28T04:44:12.405Z,21.70
2019-04-28T04:46:41.967Z,21.70
2019-04-28T04:49:11.545Z,21.70
2019-04-28T04:51:43.943Z,21.70
2019-04-28T04:54:12.320Z,21.70
2019-04-28T04:56:41.918Z,21.60
2019-04-28T04:59:11.473Z,21.70
2019-04-28T05:01:52.290Z,21.70
2019-04-28T05:04:26.113Z,21.60
2019-04-28T05:06:55.707Z,21.60
2019-04-28T05:09:25.278Z,21.70
2019-04-28T05:11:54.846Z,21.70
2019-04-28T05:14:24.431Z,21.60
2019-04-28T05:16:53.994Z,21.70
2019-04-28T05:19:23.556Z,21.60
2019-04-28T05:21:53.131Z,21.70
2019-04-28T05:24:30.443Z,21.60
2019-04-28T05:27:00.119Z,21.70
2019-04-28T05:29:30.630Z,21.60
2019-04-28T05:32:03.298Z,21.60
2019-04-28T05:34:31.560Z,21.70
2019-04-28T05:37:01.120Z,21.60
2019-04-28T05:39:30.732Z,21.60
2019-04-28T05:42:00.873Z,21.60
2019-04-28T05:44:32.085Z,21.60
2019-04-28T05:47:01.856Z,21.60
2019-04-28T05:49:32.973Z,21.60
2019-04-28T05:52:11.917Z,21.70
2019-04-28T05:54:49.651Z,21.70
2019-04-28T05:57:24.042Z,21.70
2019-04-28T06:00:01.043Z,21.70
2019-04-28T06:02:30.768Z,21.70
2019-04-28T06:05:00.336Z,21.70
2019-04-28T06:07:31.551Z,21.70
2019-04-28T06:10:01.116Z,21.70
2019-04-28T06:12:31.972Z,21.70
2019-04-28T06:15:01.638Z,21.70
2019-04-28T06:17:31.189Z,21.70
2019-04-28T06:20:00.804Z,21.70
2019-04-28T06:22:30.371Z,21.70
2019-04-28T06:25:00.850Z,21.70
2019-04-28T06:27:32.775Z,21.70
2019-04-28T06:30:04.804Z,21.70
2019-04-28T06:32:35.393Z,21.70
2019-04-28T06:35:06.907Z,21.70
2019-04-28T06:37:36.489Z,21.70
2019-04-28T06:40:06.736Z,21.70
2019-04-28T06:42:36.297Z,21.70
2019-04-28T06:45:06.664Z,21.70
2019-04-28T06:47:36.226Z,21.70
2019-04-28T06:50:05.835Z,21.70
2019-04-28T06:52:35.382Z,21.70
2019-04-28T06:55:06.779Z,21.80
2019-04-28T06:57:36.341Z,21.70
2019-04-28T07:00:06.699Z,21.70
2019-04-28T07:02:36.476Z,21.70
2019-04-28T07:05:06.943Z,21.70
2019-04-28T07:07:36.508Z,21.70
2019-04-28T07:10:07.277Z,21.70
2019-04-28T07:12:36.847Z,21.70
2019-04-28T07:15:06.494Z,21.70
2019-04-28T07:17:36.118Z,21.70
2019-04-28T07:20:14.325Z,21.70
2019-04-28T07:22:43.923Z,21.70
2019-04-28T07:25:14.307Z,21.70
2019-04-28T07:27:43.888Z,21.70
2019-04-28T07:30:14.471Z,21.70
2019-04-28T07:32:44.027Z,21.70
2019-04-28T07:35:14.515Z,21.70
2019-04-28T07:37:44.088Z,21.70
2019-04-28T07:40:13.618Z,21.70
2019-04-28T07:42:43.318Z,21.70
2019-04-28T07:45:12.880Z,21.70
2019-04-28T07:47:42.483Z,21.70
2019-04-28T07:50:12.046Z,21.70
2019-04-28T07:52:55.095Z,21.70
2019-04-28T07:55:27.561Z,21.70
2019-04-28T07:57:57.160Z,21.70
2019-04-28T08:00:28.306Z,21.70
2019-04-28T08:02:57.855Z,21.70
2019-04-28T08:05:27.535Z,21.70
2019-04-28T08:07:57.096Z,21.60
2019-04-28T08:10:27.660Z,21.60
2019-04-28T08:12:57.219Z,21.70
2019-04-28T08:15:26.816Z,21.70
2019-04-28T08:17:56.360Z,21.60
2019-04-28T08:20:25.936Z,21.70
2019-04-28T08:22:55.511Z,21.70
2019-04-28T08:25:25.075Z,21.70
2019-04-28T08:27:55.103Z,21.70
2019-04-28T08:30:25.819Z,21.60
2019-04-28T08:32:56.987Z,21.70
2019-04-28T08:35:26.530Z,21.70
2019-04-28T08:37:56.096Z,21.70
2019-04-28T08:40:25.731Z,21.70
2019-04-28T08:42:55.220Z,21.70
2019-04-28T08:45:24.817Z,21.70
2019-04-28T08:47:54.357Z,21.70
2019-04-28T08:50:23.930Z,21.70
2019-04-28T08:52:53.549Z,21.70
2019-04-28T08:55:23.080Z,21.70
2019-04-28T08:57:53.535Z,21.70
2019-04-28T09:00:23.855Z,21.70
2019-04-28T09:02:53.432Z,21.70
2019-04-28T09:05:23.051Z,21.70
2019-04-28T09:07:52.615Z,21.70
2019-04-28T09:10:22.155Z,21.70
2019-04-28T09:12:51.712Z,21.70
2019-04-28T09:15:21.671Z,21.70
2019-04-28T09:17:51.218Z,21.70
2019-04-28T09:20:20.835Z,21.70
2019-04-28T09:22:50.743Z,21.70
2019-04-28T09:25:20.305Z,21.70
2019-04-28T09:27:49.896Z,21.70
2019-04-28T09:30:19.432Z,21.70
2019-04-28T09:32:49.019Z,21.70
2019-04-28T09:35:18.558Z,21.70
2019-04-28T09:37:48.164Z,21.70
2019-04-28T09:40:18.027Z,21.70
2019-04-28T09:42:51.695Z,21.70
2019-04-28T09:45:22.827Z,21.70
2019-04-28T09:47:52.605Z,21.70
2019-04-28T09:50:22.168Z,21.70
2019-04-28T09:52:51.757Z,21.70
2019-04-28T09:55:21.329Z,21.70
2019-04-28T09:57:50.872Z,21.70
2019-04-28T10:00:20.446Z,21.70
2019-04-28T10:02:49.984Z,21.70
2019-04-28T10:05:19.582Z,21.70
2019-04-28T10:07:49.116Z,21.70
2019-04-28T10:10:18.692Z,21.70
2019-04-28T10:12:48.264Z,21.60
2019-04-28T10:15:17.804Z,21.60
2019-04-28T10:17:47.375Z,21.70
2019-04-28T10:20:16.930Z,21.60
2019-04-28T10:22:46.628Z,21.60
2019-04-28T10:25:16.171Z,21.70
2019-04-28T10:27:45.734Z,21.60
2019-04-28T10:30:15.392Z,21.60
2019-04-28T10:32:44.950Z,21.60
2019-04-28T10:35:16.101Z,21.60
2019-04-28T10:37:45.795Z,21.60
2019-04-28T10:40:33.066Z,21.70
2019-04-28T10:43:02.631Z,21.60
2019-04-28T10:45:34.624Z,21.60
2019-04-28T10:48:04.202Z,21.60
2019-04-28T10:50:33.744Z,21.60
2019-04-28T10:53:03.325Z,21.70
2019-04-28T10:55:32.887Z,21.60
2019-04-28T10:58:02.460Z,21.60
2019-04-28T11:00:33.592Z,21.70
2019-04-28T11:03:03.219Z,21.60
2019-04-28T11:05:35.545Z,21.60
2019-04-28T11:08:06.713Z,21.60
2019-04-28T11:10:36.264Z,21.60
2019-04-28T11:13:06.020Z,21.60
2019-04-28T11:15:36.999Z,21.60
2019-04-28T11:18:08.132Z,21.70
2019-04-28T11:20:37.766Z,21.60
2019-04-28T11:23:07.313Z,21.70
2019-04-28T11:25:36.890Z,21.60
2019-04-28T11:28:06.669Z,21.60
2019-04-28T11:30:36.225Z,21.60
2019-04-28T11:33:19.174Z,21.70
2019-04-28T11:35:49.444Z,21.60
2019-04-28T11:38:19.007Z,21.60
2019-04-28T11:40:48.560Z,21.60
2019-04-28T11:43:18.131Z,21.60
2019-04-28T11:45:47.714Z,21.70
2019-04-28T11:48:17.289Z,21.60
2019-04-28T11:50:47.222Z,21.60
2019-04-28T11:53:16.796Z,21.60
2019-04-28T11:55:46.342Z,21.70
2019-04-28T11:58:17.073Z,21.60
2019-04-28T12:00:46.605Z,21.60
2019-04-28T12:03:16.171Z,21.70
2019-04-28T12:05:47.438Z,21.60
2019-04-28T12:08:16.996Z,21.70
2019-04-28T12:10:48.140Z,21.60
2019-04-28T12:13:19.271Z,21.60
2019-04-28T12:15:50.407Z,21.60
2019-04-28T12:18:37.855Z,21.60
2019-04-28T12:21:07.424Z,21.70
2019-04-28T12:23:38.068Z,21.60
2019-04-28T12:26:07.680Z,21.60
2019-04-28T12:28:37.258Z,21.60
2019-04-28T12:31:06.860Z,21.60
2019-04-28T12:33:37.520Z,21.60
2019-04-28T12:36:08.276Z,21.60
2019-04-28T12:38:37.848Z,21.70
2019-04-28T12:41:07.700Z,21.60
2019-04-28T12:43:37.305Z,21.60
2019-04-28T12:46:06.868Z,21.60
2019-04-28T12:48:36.442Z,21.60
2019-04-28T12:51:06.094Z,21.60
2019-04-28T12:53:37.196Z,21.60
2019-04-28T12:56:06.774Z,21.60
2019-04-28T12:58:36.351Z,21.60
2019-04-28T13:01:11.548Z,21.60
2019-04-28T13:03:48.675Z,21.60
2019-04-28T13:06:20.664Z,21.60
2019-04-28T13:08:50.223Z,21.70
2019-04-28T13:11:19.772Z,21.60
2019-04-28T13:13:49.340Z,21.60
2019-04-28T13:16:18.921Z,21.60
2019-04-28T13:18:48.480Z,21.60
2019-04-28T13:21:18.032Z,21.60
2019-04-28T13:23:47.818Z,21.60
2019-04-28T13:26:17.352Z,21.60
2019-04-28T13:28:46.907Z,21.60
2019-04-28T13:31:16.476Z,21.60
2019-04-28T13:33:55.915Z,21.60
2019-04-28T13:36:17.241Z,21.60
2019-04-28T13:38:46.804Z,21.60
2019-04-28T13:41:17.352Z,21.60
2019-04-28T13:43:47.962Z,21.60
2019-04-28T13:46:18.603Z,21.60
2019-04-28T13:48:48.183Z,21.60
2019-04-28T13:51:17.743Z,21.60
2019-04-28T13:53:48.432Z,21.60
2019-04-28T13:56:18.009Z,21.60
2019-04-28T13:58:48.759Z,21.60
2019-04-28T14:01:22.618Z,21.60
2019-04-28T14:04:11.975Z,21.60
2019-04-28T14:06:43.082Z,21.60
2019-04-28T14:09:14.227Z,21.60
2019-04-28T14:11:44.112Z,21.60
2019-04-28T14:14:13.687Z,21.60
2019-04-28T14:16:43.658Z,21.60
2019-04-28T14:19:13.486Z,21.60
2019-04-28T14:21:43.401Z,21.60
2019-04-28T14:24:12.989Z,21.60
2019-04-28T14:26:42.560Z,21.60
2019-04-28T14:29:12.098Z,21.60
2019-04-28T14:31:42.045Z,21.60
2019-04-28T14:34:11.784Z,21.60
2019-04-28T14:36:42.493Z,21.50
2019-04-28T14:39:12.316Z,21.50
2019-04-28T14:41:43.484Z,21.50
2019-04-28T14:44:13.107Z,21.50
2019-04-28T14:46:42.664Z,21.50
2019-04-28T14:49:12.227Z,21.50
2019-04-28T14:51:41.802Z,21.50
2019-04-28T14:54:11.367Z,21.60
2019-04-28T14:56:41.043Z,21.50
2019-04-28T14:59:10.639Z,21.50
2019-04-28T15:01:42.631Z,21.50
2019-04-28T15:04:22.741Z,21.50
2019-04-28T15:06:59.757Z,21.50
2019-04-28T15:09:46.737Z,21.50
2019-04-28T15:12:16.364Z,21.50
2019-04-28T15:14:45.901Z,21.50
2019-04-28T15:17:15.530Z,21.50
2019-04-28T15:19:45.030Z,21.50
2019-04-28T15:22:14.623Z,21.50
2019-04-28T15:24:44.162Z,21.50
2019-04-28T15:27:13.739Z,21.50
2019-04-28T15:29:43.309Z,21.50
2019-04-28T15:32:12.920Z,21.50
2019-04-28T15:34:42.749Z,21.50
2019-04-28T15:37:15.303Z,21.50
2019-04-28T15:39:43.525Z,21.50
2019-04-28T15:42:13.086Z,21.50
2019-04-28T15:44:43.013Z,21.50
2019-04-28T15:47:12.572Z,21.50
2019-04-28T15:49:42.170Z,21.50
2019-04-28T15:52:11.727Z,21.50
2019-04-28T15:54:41.307Z,21.40
2019-04-28T15:57:10.872Z,21.40
2019-04-28T15:59:40.443Z,21.50
2019-04-28T16:02:10.020Z,21.40
2019-04-28T16:04:39.921Z,21.40
2019-04-28T16:07:09.876Z,21.40
2019-04-28T16:09:41.049Z,21.50
2019-04-28T16:12:11.825Z,21.50
2019-04-28T16:14:41.388Z,21.50
2019-04-28T16:17:10.964Z,21.40
2019-04-28T16:19:40.525Z,21.40
2019-04-28T16:22:10.088Z,21.40
2019-04-28T16:24:39.879Z,21.40
2019-04-28T16:27:09.436Z,21.40
2019-04-28T16:29:40.107Z,21.40
2019-04-28T16:32:09.986Z,21.40
2019-04-28T16:34:43.084Z,21.50
2019-04-28T16:37:14.031Z,21.40
2019-04-28T16:39:43.573Z,21.40
2019-04-28T16:42:15.618Z,21.40
2019-04-28T16:44:45.611Z,21.40
2019-04-28T16:47:15.487Z,21.40
2019-04-28T16:49:45.355Z,21.40
2019-04-28T16:52:14.951Z,21.40
2019-04-28T16:54:44.525Z,21.40
2019-04-28T16:57:33.701Z,21.40
2019-04-28T17:00:12.232Z,21.40
2019-04-28T17:02:46.597Z,21.40
2019-04-28T17:05:16.687Z,21.40
2019-04-28T17:07:52.763Z,21.40
2019-04-28T17:10:19.688Z,21.40
2019-04-28T17:12:49.382Z,21.40
2019-04-28T17:15:18.942Z,21.40
2019-04-28T17:17:48.496Z,21.40
2019-04-28T17:20:18.087Z,21.40
2019-04-28T17:22:47.641Z,21.40
2019-04-28T17:25:17.236Z,21.40
2019-04-28T17:27:47.237Z,21.40
2019-04-28T17:30:16.965Z,21.40
2019-04-28T17:32:46.737Z,21.40
2019-04-28T17:35:16.798Z,21.40
2019-04-28T17:37:46.392Z,21.40
2019-04-28T17:40:17.540Z,21.40
2019-04-28T17:42:47.335Z,21.40
2019-04-28T17:45:16.885Z,21.40
2019-04-28T17:47:46.655Z,21.40
2019-04-28T17:50:18.011Z,21.40
2019-04-28T17:52:47.572Z,21.40
2019-04-28T17:55:17.155Z,21.40
2019-04-28T17:57:46.719Z,21.40
2019-04-28T18:00:34.116Z,21.40
2019-04-28T18:03:08.403Z,21.40
2019-04-28T18:05:42.557Z,21.40
2019-04-28T18:08:20.861Z,21.40
2019-04-28T18:10:44.217Z,21.40
2019-04-28T18:13:13.779Z,21.40
2019-04-28T18:15:52.542Z,21.40
2019-04-28T18:18:23.873Z,21.40
2019-04-28T18:20:53.452Z,21.40
2019-04-28T18:23:23.187Z,21.30
2019-04-28T18:25:52.835Z,21.40
2019-04-28T18:28:22.596Z,21.40
2019-04-28T18:30:56.709Z,21.40
2019-04-28T18:33:36.542Z,21.40
2019-04-28T18:36:07.671Z,21.40
2019-04-28T18:38:41.634Z,21.30
2019-04-28T18:41:12.725Z,21.40
2019-04-28T18:44:02.282Z,21.30
2019-04-28T18:46:31.830Z,21.30
2019-04-28T18:49:01.464Z,21.30
2019-04-28T18:51:31.016Z,21.30
2019-04-28T18:54:00.631Z,21.30
2019-04-28T18:56:30.208Z,21.30
2019-04-28T18:58:59.740Z,21.40
2019-04-28T19:01:39.910Z,21.40
2019-04-28T19:04:09.475Z,21.40
2019-04-28T19:06:40.995Z,21.40
2019-04-28T19:09:30.009Z,21.40
2019-04-28T19:12:04.138Z,21.40
2019-04-28T19:14:38.368Z,21.40
2019-04-28T19:17:25.924Z,21.40
2019-04-28T19:19:55.533Z,21.40
2019-04-28T19:22:25.068Z,21.40
2019-04-28T19:24:54.934Z,21.40
2019-04-28T19:27:24.516Z,21.40
2019-04-28T19:29:54.063Z,21.40
2019-04-28T19:32:23.670Z,21.40
2019-04-28T19:34:54.128Z,21.40
2019-04-28T19:37:23.649Z,21.40
2019-04-28T19:39:53.281Z,21.40
2019-04-28T19:42:22.843Z,21.40
2019-04-28T19:44:52.419Z,21.40
2019-04-28T19:47:22.001Z,21.40
2019-04-28T19:49:51.543Z,21.40
2019-04-28T19:52:21.145Z,21.40
2019-04-28T19:55:04.384Z,21.40
2019-04-28T19:57:53.690Z,21.50
2019-04-28T20:00:34.278Z,21.50
2019-04-28T20:03:03.986Z,21.50
2019-04-28T20:05:33.534Z,21.50
2019-04-28T20:08:03.122Z,21.50
2019-04-28T20:10:32.910Z,21.50
2019-04-28T20:13:02.491Z,21.50
2019-04-28T20:15:33.021Z,21.60
2019-04-28T20:18:02.579Z,21.50
2019-04-28T20:20:32.359Z,21.50
2019-04-28T20:23:02.028Z,21.50
2019-04-28T20:25:31.868Z,21.50
2019-04-28T20:28:01.564Z,21.50
2019-04-28T20:30:31.119Z,21.50
2019-04-28T20:33:07.323Z,21.50
2019-04-28T20:35:33.664Z,21.50
2019-04-28T20:38:04.788Z,21.50
2019-04-28T20:40:36.008Z,21.50
2019-04-28T20:43:10.162Z,21.40
2019-04-28T20:45:39.727Z,21.50
2019-04-28T20:48:09.292Z,21.40
2019-04-28T20:50:38.850Z,21.40
2019-04-28T20:53:09.494Z,21.40
2019-04-28T20:55:40.199Z,21.40
2019-04-28T20:58:10.064Z,21.40
2019-04-28T21:00:39.637Z,21.40
2019-04-28T21:03:09.301Z,21.40
2019-04-28T21:05:38.855Z,21.40
2019-04-28T21:08:08.549Z,21.40
2019-04-28T21:10:38.650Z,21.40
2019-04-28T21:13:08.271Z,21.40
2019-04-28T21:15:37.826Z,21.40
2019-04-28T21:18:07.394Z,21.40
2019-04-28T21:20:36.961Z,21.40
2019-04-28T21:23:06.510Z,21.40
2019-04-28T21:25:36.075Z,21.40
2019-04-28T21:28:05.658Z,21.40
2019-04-28T21:30:35.197Z,21.30
2019-04-28T21:33:05.157Z,21.40
2019-04-28T21:35:34.714Z,21.30
2019-04-28T21:38:04.273Z,21.30
2019-04-28T21:40:34.670Z,21.30
2019-04-28T21:43:08.820Z,21.30
2019-04-28T21:45:56.432Z,21.30
2019-04-28T21:48:39.948Z,21.30
2019-04-28T21:51:11.894Z,21.30
2019-04-28T21:53:40.688Z,21.30
2019-04-28T21:56:10.340Z,21.30
2019-04-28T21:58:39.821Z,21.30
2019-04-28T22:01:09.403Z,21.30
2019-04-28T22:03:40.801Z,21.30
2019-04-28T22:06:10.371Z,21.30
2019-04-28T22:08:39.973Z,21.30
2019-04-28T22:11:09.535Z,21.30
2019-04-28T22:13:39.102Z,21.30
2019-04-28T22:16:08.675Z,21.30
2019-04-28T22:18:38.230Z,21.20
2019-04-28T22:21:07.864Z,21.20
2019-04-28T22:23:54.053Z,21.20
2019-04-28T22:26:42.733Z,21.20
2019-04-28T22:29:13.576Z,21.30
2019-04-28T22:31:43.557Z,21.30
2019-04-28T22:34:13.324Z,21.20
2019-04-28T22:36:44.939Z,21.20
2019-04-28T22:39:14.767Z,21.20
2019-04-28T22:41:45.188Z,21.20
2019-04-28T22:44:14.744Z,21.20
2019-04-28T22:46:44.332Z,21.20
2019-04-28T22:49:13.895Z,21.20
2019-04-28T22:51:44.567Z,21.20
2019-04-28T22:54:33.203Z,21.20
2019-04-28T22:57:04.392Z,21.20
2019-04-28T22:59:38.220Z,21.20
2019-04-28T23:02:15.101Z,21.20
2019-04-28T23:04:49.204Z,21.20
2019-04-28T23:07:19.806Z,21.20
2019-04-28T23:09:50.278Z,21.20
2019-04-28T23:12:19.797Z,21.20
2019-04-28T23:14:49.358Z,21.20
2019-04-28T23:17:20.035Z,21.20
2019-04-28T23:19:49.588Z,21.20
2019-04-28T23:22:26.822Z,21.20
2019-04-28T23:24:56.443Z,21.20
2019-04-28T23:27:27.096Z,21.20
2019-04-28T23:29:56.811Z,21.20
2019-04-28T23:32:26.348Z,21.20
2019-04-28T23:34:56.946Z,21.20
2019-04-28T23:37:26.506Z,21.20
2019-04-28T23:39:56.097Z,21.20
2019-04-28T23:42:30.792Z,21.20
2019-04-28T23:45:00.331Z,21.20
2019-04-28T23:47:29.904Z,21.20
2019-04-28T23:49:59.436Z,21.20
2019-04-28T23:52:30.586Z,21.20
2019-04-28T23:55:01.727Z,21.20
2019-04-28T23:57:32.282Z,21.20
